| Date | Time | Temp. (oF) | Dew Point (oF) | Rel. Hum. (%) | Press. (in.) | Wind Dir. | Wind Speed (mph) | Hourly Rainfall (in.) |
|
|---|---|---|---|---|---|---|---|---|---|
| 1 | 11/12 | 00:00 | 23 | 19 | 86 | 30.47 | SSE | 1 | 0.00 |
| 2 | 11/11 | 23:00 | 24 | 18 | 80 | 30.47 | SSE | 0 | 0.00 |
| 3 | 11/11 | 22:00 | 24 | 18 | 78 | 30.49 | SSE | 1 | 0.00 |
| 4 | 11/11 | 21:00 | 25 | 18 | 77 | 30.50 | SSW | 1 | 0.00 |
| 5 | 11/11 | 20:00 | 26 | 19 | 75 | 30.48 | SSW | 1 | 0.00 |
| 6 | 11/11 | 19:00 | 28 | 15 | 59 | 30.49 | SSW | 0 | 0.00 |
| 7 | 11/11 | 18:00 | 30 | 14 | 51 | 30.50 | SSW | 1 | 0.00 |
| 8 | 11/11 | 17:00 | 32 | 12 | 44 | 30.49 | SSW | 0 | 0.00 |
| 9 | 11/11 | 16:00 | 34 | 12 | 40 | 30.48 | S | 1 | 0.00 |
| 10 | 11/11 | 15:00 | 36 | 12 | 37 | 30.47 | SW | 4 | 0.00 |
| 11 | 11/11 | 14:00 | 37 | 14 | 40 | 30.48 | NNW | 1 | 0.00 |
| 12 | 11/11 | 13:00 | 36 | 13 | 39 | 30.50 | WNW | 2 | 0.00 |
| 13 | 11/11 | 12:00 | 35 | 14 | 43 | 30.54 | SW | 6 | 0.00 |
| 14 | 11/11 | 11:00 | 31 | 11 | 44 | 30.58 | N | 6 | 0.00 |
| 15 | 11/11 | 10:00 | 29 | 14 | 54 | 30.60 | NW | 3 | 0.00 |
| 16 | 11/11 | 09:00 | 25 | 12 | 58 | 30.61 | NW | 3 | 0.00 |
| 17 | 11/11 | 08:00 | 21 | 10 | 64 | 30.61 | WNW | 7 | 0.00 |
| 18 | 11/11 | 07:00 | 18 | 9 | 68 | 30.59 | NW | 3 | 0.00 |
| 19 | 11/11 | 06:00 | 18 | 8 | 65 | 30.58 | W | 2 | 0.00 |
| 20 | 11/11 | 05:00 | 19 | 7 | 61 | 30.58 | WNW | 3 | 0.00 |
| 21 | 11/11 | 04:00 | 19 | 5 | 56 | 30.57 | NW | 5 | 0.00 |
| 22 | 11/11 | 03:00 | 19 | 5 | 56 | 30.56 | WSW | 2 | 0.00 |
| 23 | 11/11 | 02:00 | 20 | 5 | 54 | 30.56 | NW | 4 | 0.00 |
| 24 | 11/11 | 01:00 | 20 | 4 | 51 | 30.56 | WNW | 2 | 0.00 |